createdAt,value
2022-11-24T00:01:31.572Z,97.74
2022-11-24T00:04:01.913Z,97.93
2022-11-24T00:06:32.050Z,98.11
2022-11-24T00:09:00.309Z,97.99
2022-11-24T00:11:31.379Z,97.91
2022-11-24T00:14:00.373Z,97.88
2022-11-24T00:16:30.747Z,97.93
2022-11-24T00:19:01.137Z,98.02
2022-11-24T00:21:30.971Z,97.96
2022-11-24T00:23:59.750Z,98.06
2022-11-24T00:26:33.247Z,98.00
2022-11-24T00:29:05.214Z,98.41
2022-11-24T00:31:36.128Z,97.83
2022-11-24T00:34:07.054Z,98.07
2022-11-24T00:36:36.680Z,97.85
2022-11-24T00:39:11.898Z,98.21
2022-11-24T00:41:41.647Z,98.10
2022-11-24T00:44:10.003Z,98.03
2022-11-24T00:46:38.681Z,97.88
2022-11-24T00:49:07.036Z,97.90
2022-11-24T00:51:35.195Z,98.01
2022-11-24T00:54:03.649Z,97.97
2022-11-24T00:56:31.723Z,97.75
2022-11-24T00:58:59.764Z,98.02
2022-11-24T01:01:31.276Z,98.08
2022-11-24T01:04:03.919Z,97.80
2022-11-24T01:06:32.849Z,97.97
2022-11-24T01:09:01.484Z,97.76
2022-11-24T01:11:55.283Z,97.99
2022-11-24T01:14:25.063Z,97.74
2022-11-24T01:16:53.825Z,97.95
2022-11-24T01:19:22.280Z,97.81
2022-11-24T01:21:51.191Z,97.75
2022-11-24T01:24:19.511Z,97.92
2022-11-24T01:26:47.716Z,98.31
2022-11-24T01:29:15.758Z,97.73
2022-11-24T01:31:43.801Z,98.20
2022-11-24T01:34:13.115Z,98.32
2022-11-24T01:36:41.293Z,97.74
2022-11-24T01:39:09.440Z,97.81
2022-11-24T01:41:37.599Z,97.41
2022-11-24T01:44:27.020Z,97.56
2022-11-24T01:47:32.993Z,97.91
2022-11-24T01:50:04.847Z,97.33
2022-11-24T01:52:53.935Z,97.63
2022-11-24T01:55:25.936Z,98.00
2022-11-24T01:57:59.656Z,97.87
2022-11-24T02:00:27.721Z,98.14
2022-11-24T02:02:59.247Z,97.90
2022-11-24T02:05:37.504Z,97.60
2022-11-24T02:08:11.141Z,97.98
2022-11-24T02:10:39.639Z,97.51
2022-11-24T02:13:07.739Z,97.97
2022-11-24T02:15:36.014Z,97.62
2022-11-24T02:18:04.295Z,97.77
2022-11-24T02:20:32.415Z,97.48
2022-11-24T02:23:15.762Z,97.79
2022-11-24T02:26:13.708Z,97.67
2022-11-24T02:28:41.908Z,97.74
2022-11-24T02:31:10.587Z,97.61
2022-11-24T02:33:39.130Z,97.81
2022-11-24T02:36:07.442Z,97.48
2022-11-24T02:38:36.250Z,97.69
2022-11-24T02:41:07.835Z,97.74
2022-11-24T02:43:41.649Z,97.51
2022-11-24T02:46:11.034Z,97.62
2022-11-24T02:48:39.240Z,97.72
2022-11-24T02:51:07.788Z,97.33
2022-11-24T02:53:35.827Z,97.73
2022-11-24T02:56:04.322Z,97.58
2022-11-24T02:58:32.462Z,97.45
2022-11-24T03:01:00.608Z,97.82
2022-11-24T03:03:28.772Z,97.53
2022-11-24T03:05:56.822Z,97.41
2022-11-24T03:08:24.906Z,98.01
2022-11-24T03:10:52.939Z,97.74
2022-11-24T03:13:20.957Z,97.68
2022-11-24T03:15:49.245Z,97.29
2022-11-24T03:18:17.787Z,97.50
2022-11-24T03:20:45.961Z,97.74
2022-11-24T03:23:14.427Z,97.47
2022-11-24T03:25:42.488Z,97.35
2022-11-24T03:28:10.498Z,97.60
2022-11-24T03:30:38.574Z,97.87
2022-11-24T03:33:07.372Z,97.90
2022-11-24T03:35:35.412Z,97.87
2022-11-24T03:38:03.549Z,97.38
2022-11-24T03:40:31.666Z,97.63
2022-11-24T03:43:00.683Z,97.56
2022-11-24T03:48:18.952Z,97.91
2022-11-24T03:50:56.305Z,97.63
2022-11-24T03:53:27.305Z,97.77
2022-11-24T03:55:56.272Z,97.81
2022-11-24T03:58:24.825Z,98.04
2022-11-24T04:00:54.077Z,97.62
2022-11-24T04:03:22.558Z,97.87
2022-11-24T04:05:50.750Z,97.61
2022-11-24T04:08:18.854Z,97.83
2022-11-24T04:10:53.292Z,97.60
2022-11-24T04:13:25.467Z,97.78
2022-11-24T04:15:54.258Z,97.50
2022-11-24T04:18:22.703Z,97.58
2022-11-24T04:20:51.672Z,98.00
2022-11-24T04:23:19.900Z,97.55
2022-11-24T04:25:48.035Z,97.63
2022-11-24T04:28:16.145Z,97.97
2022-11-24T04:30:45.140Z,97.71
2022-11-24T04:33:13.650Z,97.54
2022-11-24T04:35:41.716Z,97.65
2022-11-24T04:38:09.762Z,97.33
2022-11-24T04:40:38.643Z,97.38
2022-11-24T04:43:06.678Z,97.39
2022-11-24T04:45:34.874Z,97.25
2022-11-24T04:48:02.962Z,97.49
2022-11-24T04:50:31.129Z,97.73
2022-11-24T04:52:59.143Z,97.80
2022-11-24T04:55:27.202Z,97.60
2022-11-24T04:57:55.204Z,97.67
2022-11-24T05:00:23.319Z,97.35
2022-11-24T05:02:51.419Z,97.59
2022-11-24T05:05:19.458Z,97.29
2022-11-24T05:07:47.555Z,97.41
2022-11-24T05:10:34.973Z,97.64
2022-11-24T05:13:07.001Z,97.79
2022-11-24T05:15:37.960Z,97.56
2022-11-24T05:18:08.069Z,97.97
2022-11-24T05:20:36.495Z,97.80
2022-11-24T05:23:07.098Z,97.40
2022-11-24T05:25:35.675Z,97.67
2022-11-24T05:28:06.687Z,97.65
2022-11-24T05:30:34.878Z,97.76
2022-11-24T05:33:20.307Z,97.17
2022-11-24T05:35:49.558Z,97.63
2022-11-24T05:38:18.696Z,97.60
2022-11-24T05:40:46.983Z,97.81
2022-11-24T05:43:16.688Z,97.65
2022-11-24T05:45:45.474Z,97.98
2022-11-24T05:48:15.098Z,97.47
2022-11-24T05:50:43.357Z,97.50
2022-11-24T05:53:13.460Z,97.60
2022-11-24T05:55:41.584Z,97.02
2022-11-24T05:58:10.491Z,97.36
2022-11-24T06:00:39.807Z,97.75
2022-11-24T06:03:09.241Z,97.75
2022-11-24T06:05:38.364Z,97.40
2022-11-24T06:08:07.243Z,97.79
2022-11-24T06:10:35.308Z,97.26
2022-11-24T06:13:07.979Z,97.54
2022-11-24T06:15:37.890Z,97.71
2022-11-24T06:18:06.090Z,97.42
2022-11-24T06:20:34.288Z,97.38
2022-11-24T06:23:02.451Z,97.50
2022-11-24T06:25:31.312Z,97.67
2022-11-24T06:28:03.777Z,97.88
2022-11-24T06:30:32.121Z,97.67
2022-11-24T06:33:00.415Z,98.04
2022-11-24T06:35:28.826Z,98.03
2022-11-24T06:37:56.902Z,97.24
2022-11-24T06:40:24.944Z,97.64
2022-11-24T06:42:53.184Z,97.92
2022-11-24T06:45:21.882Z,97.64
2022-11-24T06:47:50.036Z,97.86
2022-11-24T06:50:18.274Z,97.62
2022-11-24T06:52:46.406Z,97.56
2022-11-24T06:55:14.544Z,97.28
2022-11-24T06:57:42.653Z,97.63
2022-11-24T07:00:11.624Z,97.91
2022-11-24T07:02:45.436Z,97.61
2022-11-24T07:05:14.947Z,97.95
2022-11-24T07:07:43.140Z,97.26
2022-11-24T07:10:11.272Z,97.82
2022-11-24T07:12:39.326Z,97.74
2022-11-24T07:15:08.544Z,97.91
2022-11-24T07:17:38.144Z,97.59
2022-11-24T07:20:08.712Z,97.26
2022-11-24T07:22:36.759Z,97.87
2022-11-24T07:25:07.519Z,97.28
2022-11-24T07:27:36.429Z,97.86
2022-11-24T07:30:04.817Z,98.16
2022-11-24T07:32:33.133Z,97.78
2022-11-24T07:35:01.184Z,97.58
2022-11-24T07:37:31.503Z,97.54
2022-11-24T07:40:00.208Z,97.57
2022-11-24T07:42:29.090Z,98.02
2022-11-24T07:44:57.301Z,97.35
2022-11-24T07:47:25.417Z,97.82
2022-11-24T07:49:53.605Z,97.45
2022-11-24T07:52:21.686Z,97.85
2022-11-24T07:54:49.778Z,97.82
2022-11-24T07:57:17.793Z,97.95
2022-11-24T07:59:45.895Z,97.83
2022-11-24T08:02:14.368Z,97.86
2022-11-24T08:04:43.488Z,97.79
2022-11-24T08:07:11.609Z,97.81
2022-11-24T08:09:39.760Z,98.00
2022-11-24T08:12:07.921Z,97.95
2022-11-24T08:14:36.375Z,97.67
2022-11-24T08:17:04.611Z,98.32
2022-11-24T08:19:32.884Z,97.69
2022-11-24T08:22:01.148Z,97.81
2022-11-24T08:24:29.246Z,97.69
2022-11-24T08:26:57.347Z,97.80
2022-11-24T08:29:29.797Z,98.18
2022-11-24T08:31:58.145Z,97.63
2022-11-24T08:34:29.054Z,97.86
2022-11-24T08:36:57.079Z,97.89
2022-11-24T08:39:25.502Z,97.75
2022-11-24T08:41:53.978Z,97.60
2022-11-24T08:44:22.786Z,97.89
2022-11-24T08:46:50.949Z,97.84
2022-11-24T08:49:19.119Z,97.85
2022-11-24T08:51:48.727Z,97.98
2022-11-24T08:54:18.949Z,97.74
2022-11-24T08:56:49.550Z,97.68
2022-11-24T08:59:18.466Z,97.49
2022-11-24T09:01:47.543Z,97.72
2022-11-24T09:04:16.323Z,97.74
2022-11-24T09:06:44.542Z,98.12
2022-11-24T09:09:12.951Z,97.63
2022-11-24T09:11:41.089Z,98.04
2022-11-24T09:14:09.267Z,98.21
2022-11-24T09:16:37.395Z,97.70
2022-11-24T09:19:08.221Z,97.93
2022-11-24T09:21:39.627Z,98.08
2022-11-24T09:24:09.857Z,97.65
2022-11-24T09:26:43.119Z,97.86
2022-11-24T09:29:14.519Z,97.93
2022-11-24T09:31:42.634Z,97.91
2022-11-24T09:34:14.595Z,97.80
2022-11-24T09:36:43.531Z,97.67
2022-11-24T09:39:12.068Z,97.90
2022-11-24T09:42:17.844Z,97.70
2022-11-24T09:44:52.160Z,98.23
2022-11-24T09:47:55.348Z,97.63
2022-11-24T09:50:27.106Z,97.68
2022-11-24T09:53:12.690Z,97.95
2022-11-24T09:55:49.748Z,97.92
2022-11-24T09:58:38.912Z,98.00
2022-11-24T10:01:19.001Z,97.88
2022-11-24T10:03:52.478Z,98.13
2022-11-24T10:06:31.532Z,97.74
2022-11-24T10:09:21.648Z,97.75
2022-11-24T10:12:02.941Z,97.95
2022-11-24T10:15:19.245Z,98.03
2022-11-24T10:18:18.510Z,97.87
2022-11-24T10:21:14.502Z,97.65
2022-11-24T10:23:54.817Z,97.81
2022-11-24T10:26:31.700Z,97.67
2022-11-24T10:29:06.400Z,98.12
2022-11-24T10:31:37.758Z,97.82
2022-11-24T10:34:19.805Z,98.03
2022-11-24T10:37:12.710Z,97.75
2022-11-24T10:39:41.018Z,97.83
2022-11-24T10:42:15.395Z,97.74
2022-11-24T10:44:43.973Z,98.03
2022-11-24T10:47:22.978Z,97.84
2022-11-24T10:49:58.156Z,97.84
2022-11-24T10:52:31.677Z,97.87
2022-11-24T10:55:02.625Z,97.79
2022-11-24T10:57:34.006Z,98.06
2022-11-24T11:00:25.725Z,97.74
2022-11-24T11:03:26.953Z,97.74
2022-11-24T11:06:04.479Z,97.73
2022-11-24T11:08:32.717Z,97.74
2022-11-24T11:11:22.617Z,97.93
2022-11-24T11:14:02.937Z,97.54
2022-11-24T11:16:40.543Z,97.14
2022-11-24T11:19:49.888Z,97.82
2022-11-24T11:22:27.814Z,97.92
2022-11-24T11:25:08.119Z,97.85
2022-11-24T11:27:37.464Z,97.78
2022-11-24T11:36:11.494Z,97.60
2022-11-24T11:38:40.947Z,97.84
2022-11-24T11:41:22.568Z,97.85
2022-11-24T11:44:21.548Z,97.62
2022-11-24T11:46:49.911Z,97.56
2022-11-24T11:49:18.097Z,97.64
2022-11-24T11:52:14.127Z,97.41
2022-11-24T11:54:45.035Z,97.42
2022-11-24T11:57:22.044Z,97.71
2022-11-24T11:59:50.208Z,97.52
2022-11-24T12:02:41.345Z,97.69
2022-11-24T12:05:25.420Z,97.88
2022-11-24T12:08:23.619Z,97.75
2022-11-24T12:10:54.321Z,97.58
2022-11-24T12:13:56.875Z,97.71
2022-11-24T12:16:59.383Z,97.22
2022-11-24T12:19:35.940Z,97.51
2022-11-24T12:22:13.176Z,97.53
2022-11-24T12:24:57.207Z,97.89
2022-11-24T12:27:57.712Z,97.44
2022-11-24T12:30:30.099Z,97.46
2022-11-24T12:33:13.520Z,97.72
2022-11-24T12:35:47.647Z,97.75
2022-11-24T12:38:30.971Z,97.32
2022-11-24T12:41:43.977Z,97.06
2022-11-24T12:44:40.509Z,97.20
2022-11-24T12:47:27.447Z,97.12
2022-11-24T12:50:20.308Z,97.56
2022-11-24T12:52:58.787Z,97.48
2022-11-24T12:55:30.337Z,97.24
2022-11-24T12:58:20.447Z,97.45
2022-11-24T13:01:00.801Z,97.09
2022-11-24T13:03:49.757Z,96.90
2022-11-24T13:06:25.059Z,96.93
2022-11-24T13:08:54.109Z,97.09
2022-11-24T13:11:23.049Z,97.41
2022-11-24T13:14:13.639Z,97.33
2022-11-24T13:19:43.816Z,97.12
2022-11-24T13:22:25.870Z,96.90
2022-11-24T13:25:16.485Z,97.22
2022-11-24T13:27:48.721Z,96.84
2022-11-24T13:30:53.912Z,97.49
2022-11-24T13:33:31.585Z,97.04
2022-11-24T13:36:22.907Z,96.96
2022-11-24T13:38:50.980Z,97.06
2022-11-24T13:41:37.189Z,96.94
2022-11-24T13:44:14.887Z,96.88
2022-11-24T13:47:31.006Z,96.82
2022-11-24T13:50:00.490Z,96.96
2022-11-24T13:52:40.965Z,96.67
2022-11-24T13:55:11.815Z,96.65
2022-11-24T13:57:43.975Z,96.64
2022-11-24T14:00:32.123Z,96.60
2022-11-24T14:03:14.543Z,96.63
2022-11-24T14:05:49.300Z,97.03
2022-11-24T14:08:24.222Z,96.47
2022-11-24T14:10:54.746Z,96.40
2022-11-24T14:13:25.493Z,96.47
2022-11-24T14:16:02.744Z,96.45
2022-11-24T14:18:32.192Z,96.32
2022-11-24T14:21:16.580Z,96.20
2022-11-24T14:23:47.073Z,96.14
2022-11-24T14:26:21.454Z,96.13
2022-11-24T14:28:50.624Z,96.20
2022-11-24T14:31:25.228Z,96.46
2022-11-24T14:34:12.677Z,96.31
2022-11-24T14:36:41.198Z,96.69
2022-11-24T14:39:14.587Z,96.33
2022-11-24T14:41:51.663Z,96.63
2022-11-24T14:44:26.117Z,96.54
2022-11-24T14:47:06.523Z,96.29
2022-11-24T14:49:41.627Z,96.73
2022-11-24T14:52:15.790Z,96.66
2022-11-24T14:55:21.421Z,96.53
2022-11-24T14:57:49.859Z,96.20
2022-11-24T15:00:20.957Z,96.54
2022-11-24T15:02:55.428Z,96.21
2022-11-24T15:05:25.708Z,96.53
2022-11-24T15:08:03.060Z,96.47
2022-11-24T15:10:36.699Z,96.35
2022-11-24T15:13:18.165Z,96.28
2022-11-24T15:15:56.347Z,96.14
2022-11-24T15:18:35.662Z,96.32
2022-11-24T15:21:04.149Z,96.32
2022-11-24T15:23:33.969Z,96.17
2022-11-24T15:26:01.945Z,96.52
2022-11-24T15:28:31.404Z,96.18
2022-11-24T15:31:01.527Z,96.00
2022-11-24T15:33:30.571Z,96.05
2022-11-24T15:35:59.924Z,96.11
2022-11-24T15:38:28.218Z,96.03
2022-11-24T15:41:00.923Z,95.92
2022-11-24T15:43:38.910Z,95.99
2022-11-24T15:46:08.838Z,96.08
2022-11-24T15:48:37.162Z,96.25
2022-11-24T15:51:08.069Z,96.08
2022-11-24T15:53:48.506Z,96.13
2022-11-24T15:56:35.020Z,95.89
2022-11-24T15:59:03.944Z,96.04
2022-11-24T16:01:33.896Z,96.21
2022-11-24T16:04:02.730Z,96.10
2022-11-24T16:06:31.211Z,96.20
2022-11-24T16:08:59.536Z,96.11
2022-11-24T16:11:27.950Z,96.02
2022-11-24T16:13:56.155Z,96.01
2022-11-24T16:16:25.473Z,96.03
2022-11-24T16:18:53.734Z,95.97
2022-11-24T16:21:21.971Z,95.89
2022-11-24T16:23:50.108Z,96.03
2022-11-24T16:26:18.297Z,96.07
2022-11-24T16:28:46.448Z,95.97
2022-11-24T16:31:16.436Z,96.02
2022-11-24T16:33:45.427Z,96.09
2022-11-24T16:36:14.322Z,96.10
2022-11-24T16:38:42.434Z,96.18
2022-11-24T16:41:10.724Z,96.13
2022-11-24T16:43:38.970Z,96.02
2022-11-24T16:46:23.149Z,96.15
2022-11-24T16:49:00.179Z,96.21
2022-11-24T16:51:34.502Z,96.12
2022-11-24T16:54:03.849Z,96.33
2022-11-24T16:56:32.135Z,96.21
2022-11-24T16:59:00.279Z,96.31
2022-11-24T17:01:29.987Z,96.19
2022-11-24T17:03:59.283Z,96.01
2022-11-24T17:06:27.840Z,96.36
2022-11-24T17:08:56.029Z,96.21
2022-11-24T17:11:26.027Z,96.14
2022-11-24T17:13:56.327Z,96.34
2022-11-24T17:16:26.368Z,96.06
2022-11-24T17:18:54.717Z,95.93
2022-11-24T17:21:25.639Z,96.00
2022-11-24T17:23:55.742Z,96.06
2022-11-24T17:26:25.544Z,96.14
2022-11-24T17:28:54.877Z,96.11
2022-11-24T17:31:28.598Z,96.20
2022-11-24T17:33:58.711Z,95.98
2022-11-24T17:36:29.723Z,96.06
2022-11-24T17:39:00.193Z,96.15
2022-11-24T17:41:28.288Z,96.17
2022-11-24T17:43:56.758Z,96.08
2022-11-24T17:46:26.393Z,96.20
2022-11-24T17:48:55.400Z,96.29
2022-11-24T17:51:25.232Z,96.27
2022-11-24T17:53:55.002Z,96.33
2022-11-24T17:56:25.646Z,96.52
2022-11-24T17:58:59.969Z,96.29
2022-11-24T18:01:30.270Z,96.23
2022-11-24T18:03:58.810Z,96.35
2022-11-24T18:06:29.443Z,96.44
2022-11-24T18:08:58.430Z,96.36
2022-11-24T18:11:31.669Z,96.55
2022-11-24T18:14:03.421Z,96.14
2022-11-24T18:16:34.529Z,96.13
2022-11-24T18:19:09.177Z,96.26
2022-11-24T18:21:40.356Z,96.33
2022-11-24T18:24:09.545Z,96.09
2022-11-24T18:26:38.784Z,96.57
2022-11-24T18:29:06.897Z,96.44
2022-11-24T18:31:36.038Z,96.35
2022-11-24T18:34:06.083Z,96.36
2022-11-24T18:36:35.214Z,96.56
2022-11-24T18:39:05.339Z,96.39
2022-11-24T18:41:36.879Z,96.41
2022-11-24T18:44:08.254Z,96.23
2022-11-24T18:46:37.812Z,96.50
2022-11-24T18:49:07.364Z,96.64
2022-11-24T18:51:36.208Z,96.51
2022-11-24T18:54:05.649Z,96.15
2022-11-24T18:56:34.725Z,96.18
2022-11-24T18:59:02.933Z,96.38
2022-11-24T19:01:32.238Z,96.55
2022-11-24T19:04:05.519Z,96.44
2022-11-24T19:06:37.766Z,96.49
2022-11-24T19:09:09.237Z,96.49
2022-11-24T19:11:40.204Z,96.61
2022-11-24T19:14:19.446Z,96.75
2022-11-24T19:16:50.544Z,96.43
2022-11-24T19:19:18.630Z,96.50
2022-11-24T19:21:46.834Z,96.63
2022-11-24T19:24:14.919Z,96.41
2022-11-24T19:26:43.067Z,96.64
2022-11-24T19:29:11.439Z,96.48
2022-11-24T19:31:42.165Z,96.60
2022-11-24T19:34:10.706Z,96.87
2022-11-24T19:36:40.693Z,96.49
2022-11-24T19:39:14.684Z,96.84
2022-11-24T19:41:42.926Z,96.40
2022-11-24T19:44:11.923Z,97.04
2022-11-24T19:46:40.856Z,96.58
2022-11-24T19:49:09.198Z,96.44
2022-11-24T19:51:39.721Z,96.31
2022-11-24T19:54:13.393Z,96.79
2022-11-24T19:56:42.017Z,96.62
2022-11-24T19:59:13.068Z,96.58
2022-11-24T20:01:42.743Z,96.62
2022-11-24T20:04:15.117Z,96.46
2022-11-24T20:06:46.363Z,96.45
2022-11-24T20:09:25.050Z,96.72
2022-11-24T20:11:53.083Z,96.29
2022-11-24T20:14:22.152Z,96.37
2022-11-24T20:16:50.982Z,96.86
2022-11-24T20:19:19.142Z,96.45
2022-11-24T20:21:49.402Z,96.65
2022-11-24T20:24:23.432Z,96.43
2022-11-24T20:26:56.501Z,96.74
2022-11-24T20:29:25.251Z,96.46
2022-11-24T20:31:55.547Z,96.30
2022-11-24T20:34:28.458Z,96.67
2022-11-24T20:36:56.890Z,96.45
2022-11-24T20:39:27.886Z,96.48
2022-11-24T20:41:56.604Z,96.69
2022-11-24T20:44:26.826Z,96.52
2022-11-24T20:46:56.915Z,96.65
2022-11-24T20:49:26.019Z,97.00
2022-11-24T20:51:55.158Z,96.92
2022-11-24T20:54:23.853Z,96.57
2022-11-24T20:56:52.097Z,96.48
2022-11-24T20:59:22.783Z,96.68
2022-11-24T21:01:59.208Z,96.39
2022-11-24T21:04:27.626Z,96.50
2022-11-24T21:06:56.353Z,96.43
2022-11-24T21:09:25.101Z,96.35
2022-11-24T21:11:53.500Z,96.71
2022-11-24T21:14:21.771Z,96.71
2022-11-24T21:16:52.430Z,97.04
2022-11-24T21:19:21.285Z,96.89
2022-11-24T21:21:52.345Z,96.86
2022-11-24T21:24:23.174Z,96.86
2022-11-24T21:26:52.976Z,96.95
2022-11-24T21:29:23.733Z,96.46
2022-11-24T21:31:52.573Z,96.57
2022-11-24T21:34:20.918Z,96.80
2022-11-24T21:36:49.524Z,96.61
2022-11-24T21:39:19.285Z,97.00
2022-11-24T21:41:47.853Z,96.86
2022-11-24T21:44:16.093Z,97.02
2022-11-24T21:46:49.524Z,97.07
2022-11-24T21:49:19.361Z,97.17
2022-11-24T21:51:47.722Z,96.94
2022-11-24T21:54:15.779Z,96.99
2022-11-24T21:56:43.869Z,97.04
2022-11-24T21:59:13.107Z,97.08
2022-11-24T22:01:41.372Z,96.93
2022-11-24T22:04:09.795Z,96.78
2022-11-24T22:06:39.300Z,96.68
2022-11-24T22:09:07.536Z,96.78
2022-11-24T22:11:35.588Z,96.91
2022-11-24T22:14:03.725Z,96.53
2022-11-24T22:16:32.050Z,96.98
2022-11-24T22:19:00.861Z,96.84
2022-11-24T22:21:33.589Z,96.95
2022-11-24T22:24:02.529Z,97.39
2022-11-24T22:26:30.940Z,97.18
2022-11-24T22:28:59.869Z,96.89
2022-11-24T22:31:30.683Z,97.01
2022-11-24T22:34:00.710Z,96.99
2022-11-24T22:36:30.164Z,97.14
2022-11-24T22:39:03.354Z,97.19
2022-11-24T22:41:33.662Z,97.15
2022-11-24T22:44:02.375Z,97.04
2022-11-24T22:46:31.931Z,97.04
2022-11-24T22:49:01.838Z,97.17
2022-11-24T22:51:33.097Z,97.01
2022-11-24T22:54:03.651Z,97.10
2022-11-24T22:56:33.029Z,97.32
2022-11-24T22:59:02.740Z,97.19
2022-11-24T23:01:34.306Z,97.10
2022-11-24T23:04:03.913Z,97.08
2022-11-24T23:06:34.285Z,97.02
2022-11-24T23:09:04.377Z,97.06
2022-11-24T23:11:38.271Z,96.97
2022-11-24T23:14:11.861Z,97.13
2022-11-24T23:16:40.175Z,97.10
2022-11-24T23:19:09.716Z,96.83
2022-11-24T23:21:38.571Z,96.86
2022-11-24T23:24:08.696Z,97.13
2022-11-24T23:26:40.269Z,97.36
2022-11-24T23:29:10.407Z,97.42
2022-11-24T23:31:40.271Z,96.80
2022-11-24T23:34:08.983Z,97.01
2022-11-24T23:36:37.255Z,97.26
2022-11-24T23:39:07.333Z,97.20
2022-11-24T23:41:35.696Z,97.17
2022-11-24T23:44:03.888Z,97.03
2022-11-24T23:46:32.321Z,97.16
2022-11-24T23:49:00.525Z,96.85
2022-11-24T23:51:30.993Z,97.08
2022-11-24T23:54:02.627Z,97.08
2022-11-24T23:56:32.799Z,97.07
2022-11-24T23:59:02.980Z,97.29
